Euro Snow — VQGH9 — position and weather

sailwx.info

Track history (hours):
 
Tides and Currents Weather Stations Pressure Air Temp Water Temp Dewpoint Dewpoint Depression Visibility Wind Speed Wind Dir Waves Ship Positions

Euro Snow

Last reported at 2015-Feb-01 10:16 UTC. Time now 2015-Feb-01 21:21 UTC.
Position N 50°31' W 000°03'.

Length 133 m; draft 7.5 m.

Type: Cargo ship. MMSI: 235613000.

Date/timePositionNaut miles runAvg speedWind from/ knotsBaromVisibWave heightAir tempDewpointWater temp
2015-Feb-01 10:16N 50°31' W 000°03'1415.2
2015-Feb-01 09:21N 50°35' E 000°18'1114.5
2015-Feb-01 08:34N 50°39' E 000°34'1515.0
2015-Feb-01 07:33N 50°48' E 000°54'1615.9
2015-Feb-01 06:34N 50°57' E 001°14'1817.9
2015-Feb-01 05:33N 51°09' E 001°36'1717.3
2015-Feb-01 04:34N 51°22' E 001°54'1615.8
2015-Feb-01 03:33N 51°34' E 002°11'1514.8
2015-Feb-01 02:32N 51°45' E 002°27'3612.2
2015-Jan-31 23:33N 52°02' E 003°19'1414.5
2015-Jan-31 22:33N 52°03' E 003°43'1514.7
2015-Jan-31 21:34N 51°58' E 004°05'2 1.5
2015-Jan-31 20:30N 51°58' E 004°03'0 0.0
2015-Jan-31 19:33N 51°58' E 004°03'0 0.0
2015-Jan-31 18:31N 51°58' E 004°03'0 0.0
2015-Jan-31 17:31N 51°58' E 004°03'0 0.0
2015-Jan-31 16:33N 51°58' E 004°03'0 0.0
2015-Jan-31 15:33N 51°58' E 004°03'0 0.0
2015-Jan-31 14:33N 51°58' E 004°03'0 0.0
2015-Jan-31 13:33N 51°58' E 004°03'0 0.0
2015-Jan-31 12:33N 51°58' E 004°03'0 0.0
2015-Jan-31 11:33N 51°58' E 004°03'1 0.3
2015-Jan-31 08:05N 51°59' E 004°04'815.2
2015-Jan-31 07:34N 52°02' E 003°52'1515.0
2015-Jan-31 06:34N 52°17' E 003°47'1413.6
2015-Jan-31 05:33N 52°30' E 003°51'1312.8
2015-Jan-31 04:33N 52°43' E 003°56'1312.7
2015-Jan-31 03:33N 52°55' E 003°60'1211.6
2015-Jan-31 02:33N 53°04' E 004°13'1212.0
2015-Jan-31 01:33N 53°13' E 004°27'1212.0
2015-Jan-31 00:33N 53°24' E 004°33'1211.7
2015-Jan-30 23:33N 53°35' E 004°39'1212.3
2015-Jan-30 22:32N 53°47' E 004°45'1212.2
2015-Jan-30 21:33N 53°59' E 004°51'1212.3
2015-Jan-30 20:32N 54°10' E 004°58'9111.4
2015-Jan-30 12:33N 55°27' E 006°22'17514.3
2015-Jan-30 00:18N 57°38' E 009°51'1114.3
2015-Jan-29 23:32N 57°44' E 010°09'1413.9
2015-Jan-29 22:33N 57°47' E 010°35'1414.0
2015-Jan-29 21:34N 57°42' E 010°59'1616.2
2015-Jan-29 20:33N 57°31' E 011°22'1615.9
2015-Jan-29 19:34N 57°17' E 011°34'1716.6
2015-Jan-29 18:33N 57°01' E 011°44'1616.3
2015-Jan-29 17:33N 56°45' E 011°52'5914.8
2015-Jan-29 13:34N 56°05' E 010°33'1211.6
2015-Jan-29 12:33N 56°09' E 010°14'0 0.0
2015-Jan-29 11:30N 56°09' E 010°14'0 0.0
2015-Jan-29 10:33N 56°09' E 010°14'0 0.0
2015-Jan-29 09:33N 56°09' E 010°14'0 0.0
2015-Jan-29 08:33N 56°09' E 010°14'1111.3
2015-Jan-29 07:33N 56°05' E 010°33'4213.6
2015-Jan-29 04:29N 56°31' E 011°31'1314.5
2015-Jan-29 03:33N 56°42' E 011°46'1414.3
2015-Jan-29 02:33N 56°56' E 011°44'1515.4
2015-Jan-29 01:33N 57°11' E 011°39'1515.1
2015-Jan-29 00:33N 57°26' E 011°38'1413.8
2015-Jan-28 23:33N 57°39' E 011°46'3 3.3
2015-Jan-28 22:33N 57°41' E 011°51'0 0.0
2015-Jan-28 21:30N 57°41' E 011°51'0 0.0
2015-Jan-28 20:33N 57°41' E 011°51'0 0.0
2015-Jan-28 19:33N 57°41' E 011°51'0 0.0
2015-Jan-28 18:33N 57°41' E 011°51'0 0.0
2015-Jan-28 17:33N 57°41' E 011°51'0 0.0
2015-Jan-28 16:34N 57°41' E 011°51'0 0.0
2015-Jan-28 15:32N 57°41' E 011°51'0 0.0
2015-Jan-28 14:32N 57°41' E 011°51'0 0.0
2015-Jan-28 13:33N 57°41' E 011°51'0 0.0
2015-Jan-28 12:33N 57°41' E 011°51'0 0.0
2015-Jan-28 11:34N 57°41' E 011°51'0 0.0
2015-Jan-28 10:34N 57°41' E 011°51'0 0.0
2015-Jan-28 09:34N 57°41' E 011°51'8 8.5
2015-Jan-28 08:34N 57°36' E 011°39'1616.2
2015-Jan-28 07:34N 57°42' E 011°10'1716.9
2015-Jan-28 06:34N 57°47' E 010°40'40316.8
2015-Jan-27 06:33N 54°54' W 000°16'1716.6
2015-Jan-27 05:32N 54°47' W 000°43'15 1.3
2015-Jan-26 17:34N 54°40' W 001°06'1515.0
2015-Jan-26 16:33N 54°34' W 000°42'1515.1
2015-Jan-26 15:34N 54°26' W 000°21'1616.1
2015-Jan-26 14:33N 54°14' W 000°02'1616.3
2015-Jan-26 13:33N 54°02' E 000°17'1616.0
2015-Jan-26 12:33N 53°50' E 000°34'3414.9
2015-Jan-26 10:18N 53°22' E 001°07'1114.2
2015-Jan-26 09:33N 53°14' E 001°17'1515.1
2015-Jan-26 08:33N 53°01' E 001°30'1717.0
2015-Jan-26 07:34N 52°48' E 001°48'1717.4
2015-Jan-26 06:33N 52°31' E 001°52'2019.0
2015-Jan-26 05:30N 52°12' E 001°43'1717.8
2015-Jan-26 04:33N 51°56' E 001°30'8 7.6
2015-Jan-26 03:33N 51°57' E 001°18'0 0.0
2015-Jan-26 02:33N 51°57' E 001°18'0 0.0
2015-Jan-26 01:29N 51°57' E 001°18'0 0.0
2015-Jan-26 00:31N 51°57' E 001°18'0 0.0
2015-Jan-25 23:27N 51°57' E 001°18'0 0.0
2015-Jan-25 22:33N 51°57' E 001°18'0 0.0
2015-Jan-25 21:31N 51°57' E 001°18'0 0.0
2015-Jan-25 20:28N 51°57' E 001°18'0 0.0
2015-Jan-25 19:26N 51°57' E 001°18'2 2.5
2015-Jan-25 18:33N 51°55' E 001°20'1211.8
2015-Jan-25 17:33N 51°52' E 001°38'1414.0
2015-Jan-25 16:33N 51°39' E 001°49'1818.1
2015-Jan-25 15:34N 51°22' E 001°43'1716.6
2015-Jan-25 14:33N 51°05' E 001°38'3517.4
2015-Jan-25 12:32N 50°36' E 001°08'1817.8
2015-Jan-25 11:33N 50°29' E 000°42'3817.5
2015-Jan-25 09:22N 50°17' W 000°15'1916.1
2015-Jan-25 08:13N 50°12' W 000°43'  
2015-Jan-23 01:27N 39°07' W 009°42'1213.5
2015-Jan-23 00:32N 38°55' W 009°42'1313.4
2015-Jan-22 23:33N 38°42' W 009°41'1211.7
2015-Jan-22 22:33N 38°38' W 009°27'1414.6
2015-Jan-22 21:33N 38°42' W 009°09'3 2.6
2015-Jan-22 20:30N 38°44' W 009°06'0 0.0
2015-Jan-22 19:33N 38°44' W 009°06'0 0.0
2015-Jan-22 18:21N 38°44' W 009°06'0 0.0
2015-Jan-22 15:30N 38°44' W 009°06'0 0.0
2015-Jan-22 14:33N 38°44' W 009°06'0 0.0
2015-Jan-22 13:28N 38°44' W 009°06'6 6.7
2015-Jan-22 12:33N 38°41' W 009°14'1110.6
2015-Jan-22 11:33N 38°37' W 009°26'1313.0
2015-Jan-22 10:33N 38°41' W 009°42'  
Track history (hours):
 
Tides and Currents Weather Stations Pressure Air Temp Water Temp Dewpoint Dewpoint Depression Visibility Wind Speed Wind Dir Waves Ship Positions

Euro Snow

Last reported at 2015-Feb-01 10:16 UTC. Time now 2015-Feb-01 21:21 UTC.
Position N 50°31' W 000°03'.

Length 133 m; draft 7.5 m.

Type: Cargo ship. MMSI: 235613000.

Date/timePositionNaut miles runAvg speedWind from/ knotsBaromVisibWave heightAir tempDewpointWater temp
2015-Feb-01 10:16N 50°31' W 000°03'1415.2
2015-Feb-01 09:21N 50°35' E 000°18'1114.5
2015-Feb-01 08:34N 50°39' E 000°34'1515.0
2015-Feb-01 07:33N 50°48' E 000°54'1615.9
2015-Feb-01 06:34N 50°57' E 001°14'1817.9
2015-Feb-01 05:33N 51°09' E 001°36'1717.3
2015-Feb-01 04:34N 51°22' E 001°54'1615.8
2015-Feb-01 03:33N 51°34' E 002°11'1514.8
2015-Feb-01 02:32N 51°45' E 002°27'3612.2
2015-Jan-31 23:33N 52°02' E 003°19'1414.5
2015-Jan-31 22:33N 52°03' E 003°43'1514.7
2015-Jan-31 21:34N 51°58' E 004°05'2 1.5
2015-Jan-31 20:30N 51°58' E 004°03'0 0.0
2015-Jan-31 19:33N 51°58' E 004°03'0 0.0
2015-Jan-31 18:31N 51°58' E 004°03'0 0.0
2015-Jan-31 17:31N 51°58' E 004°03'0 0.0
2015-Jan-31 16:33N 51°58' E 004°03'0 0.0
2015-Jan-31 15:33N 51°58' E 004°03'0 0.0
2015-Jan-31 14:33N 51°58' E 004°03'0 0.0
2015-Jan-31 13:33N 51°58' E 004°03'0 0.0
2015-Jan-31 12:33N 51°58' E 004°03'0 0.0
2015-Jan-31 11:33N 51°58' E 004°03'1 0.3
2015-Jan-31 08:05N 51°59' E 004°04'815.2
2015-Jan-31 07:34N 52°02' E 003°52'1515.0
2015-Jan-31 06:34N 52°17' E 003°47'1413.6
2015-Jan-31 05:33N 52°30' E 003°51'1312.8
2015-Jan-31 04:33N 52°43' E 003°56'1312.7
2015-Jan-31 03:33N 52°55' E 003°60'1211.6
2015-Jan-31 02:33N 53°04' E 004°13'1212.0
2015-Jan-31 01:33N 53°13' E 004°27'1212.0
2015-Jan-31 00:33N 53°24' E 004°33'1211.7
2015-Jan-30 23:33N 53°35' E 004°39'1212.3
2015-Jan-30 22:32N 53°47' E 004°45'1212.2
2015-Jan-30 21:33N 53°59' E 004°51'1212.3
2015-Jan-30 20:32N 54°10' E 004°58'9111.4
2015-Jan-30 12:33N 55°27' E 006°22'17514.3
2015-Jan-30 00:18N 57°38' E 009°51'1114.3
2015-Jan-29 23:32N 57°44' E 010°09'1413.9
2015-Jan-29 22:33N 57°47' E 010°35'1414.0
2015-Jan-29 21:34N 57°42' E 010°59'1616.2
2015-Jan-29 20:33N 57°31' E 011°22'1615.9
2015-Jan-29 19:34N 57°17' E 011°34'1716.6
2015-Jan-29 18:33N 57°01' E 011°44'1616.3
2015-Jan-29 17:33N 56°45' E 011°52'5914.8
2015-Jan-29 13:34N 56°05' E 010°33'1211.6
2015-Jan-29 12:33N 56°09' E 010°14'0 0.0
2015-Jan-29 11:30N 56°09' E 010°14'0 0.0
2015-Jan-29 10:33N 56°09' E 010°14'0 0.0
2015-Jan-29 09:33N 56°09' E 010°14'0 0.0
2015-Jan-29 08:33N 56°09' E 010°14'1111.3
2015-Jan-29 07:33N 56°05' E 010°33'4213.6
2015-Jan-29 04:29N 56°31' E 011°31'1314.5
2015-Jan-29 03:33N 56°42' E 011°46'1414.3
2015-Jan-29 02:33N 56°56' E 011°44'1515.4
2015-Jan-29 01:33N 57°11' E 011°39'1515.1
2015-Jan-29 00:33N 57°26' E 011°38'1413.8
2015-Jan-28 23:33N 57°39' E 011°46'3 3.3
2015-Jan-28 22:33N 57°41' E 011°51'0 0.0
2015-Jan-28 21:30N 57°41' E 011°51'0 0.0
2015-Jan-28 20:33N 57°41' E 011°51'0 0.0
2015-Jan-28 19:33N 57°41' E 011°51'0 0.0
2015-Jan-28 18:33N 57°41' E 011°51'0 0.0
2015-Jan-28 17:33N 57°41' E 011°51'0 0.0
2015-Jan-28 16:34N 57°41' E 011°51'0 0.0
2015-Jan-28 15:32N 57°41' E 011°51'0 0.0
2015-Jan-28 14:32N 57°41' E 011°51'0 0.0
2015-Jan-28 13:33N 57°41' E 011°51'0 0.0
2015-Jan-28 12:33N 57°41' E 011°51'0 0.0
2015-Jan-28 11:34N 57°41' E 011°51'0 0.0
2015-Jan-28 10:34N 57°41' E 011°51'0 0.0
2015-Jan-28 09:34N 57°41' E 011°51'8 8.5
2015-Jan-28 08:34N 57°36' E 011°39'1616.2
2015-Jan-28 07:34N 57°42' E 011°10'1716.9
2015-Jan-28 06:34N 57°47' E 010°40'40316.8
2015-Jan-27 06:33N 54°54' W 000°16'1716.6
2015-Jan-27 05:32N 54°47' W 000°43'15 1.3
2015-Jan-26 17:34N 54°40' W 001°06'1515.0
2015-Jan-26 16:33N 54°34' W 000°42'1515.1
2015-Jan-26 15:34N 54°26' W 000°21'1616.1
2015-Jan-26 14:33N 54°14' W 000°02'1616.3
2015-Jan-26 13:33N 54°02' E 000°17'1616.0
2015-Jan-26 12:33N 53°50' E 000°34'3414.9
2015-Jan-26 10:18N 53°22' E 001°07'1114.2
2015-Jan-26 09:33N 53°14' E 001°17'1515.1
2015-Jan-26 08:33N 53°01' E 001°30'1717.0
2015-Jan-26 07:34N 52°48' E 001°48'1717.4
2015-Jan-26 06:33N 52°31' E 001°52'2019.0
2015-Jan-26 05:30N 52°12' E 001°43'1717.8
2015-Jan-26 04:33N 51°56' E 001°30'8 7.6
2015-Jan-26 03:33N 51°57' E 001°18'0 0.0
2015-Jan-26 02:33N 51°57' E 001°18'0 0.0
2015-Jan-26 01:29N 51°57' E 001°18'0 0.0
2015-Jan-26 00:31N 51°57' E 001°18'0 0.0
2015-Jan-25 23:27N 51°57' E 001°18'0 0.0
2015-Jan-25 22:33N 51°57' E 001°18'0 0.0
2015-Jan-25 21:31N 51°57' E 001°18'0 0.0
2015-Jan-25 20:28N 51°57' E 001°18'0 0.0
2015-Jan-25 19:26N 51°57' E 001°18'2 2.5
2015-Jan-25 18:33N 51°55' E 001°20'1211.8
2015-Jan-25 17:33N 51°52' E 001°38'1414.0
2015-Jan-25 16:33N 51°39' E 001°49'1818.1
2015-Jan-25 15:34N 51°22' E 001°43'1716.6
2015-Jan-25 14:33N 51°05' E 001°38'3517.4
2015-Jan-25 12:32N 50°36' E 001°08'1817.8
2015-Jan-25 11:33N 50°29' E 000°42'3817.5
2015-Jan-25 09:22N 50°17' W 000°15'1916.1
2015-Jan-25 08:13N 50°12' W 000°43'  
2015-Jan-23 01:27N 39°07' W 009°42'1213.5
2015-Jan-23 00:32N 38°55' W 009°42'1313.4
2015-Jan-22 23:33N 38°42' W 009°41'1211.7
2015-Jan-22 22:33N 38°38' W 009°27'1414.6
2015-Jan-22 21:33N 38°42' W 009°09'3 2.6
2015-Jan-22 20:30N 38°44' W 009°06'0 0.0
2015-Jan-22 19:33N 38°44' W 009°06'0 0.0
2015-Jan-22 18:21N 38°44' W 009°06'0 0.0
2015-Jan-22 15:30N 38°44' W 009°06'0 0.0
2015-Jan-22 14:33N 38°44' W 009°06'0 0.0
2015-Jan-22 13:28N 38°44' W 009°06'6 6.7
2015-Jan-22 12:33N 38°41' W 009°14'1110.6
2015-Jan-22 11:33N 38°37' W 009°26'1313.0
2015-Jan-22 10:33N 38°41' W 009°42'  

Dump ship's entire track history